createdAt,value
2023-01-09T11:43:37.526Z,977.63
2023-01-09T11:44:38.427Z,977.63
2023-01-09T11:45:39.366Z,977.64
2023-01-09T11:46:40.551Z,977.57
2023-01-09T11:47:41.520Z,977.57
2023-01-09T11:48:42.393Z,977.54
2023-01-09T11:49:43.262Z,977.58
2023-01-09T11:50:44.137Z,977.56
2023-01-09T11:51:45.033Z,977.64
2023-01-09T11:52:45.891Z,977.54
2023-01-09T11:53:46.851Z,977.54
2023-01-09T11:54:47.731Z,977.52
2023-01-09T11:55:48.615Z,977.49
2023-01-09T11:56:49.519Z,977.51
2023-01-09T11:57:50.422Z,977.52
2023-01-09T11:58:51.580Z,977.55
2023-01-09T11:59:52.542Z,977.51
2023-01-09T12:00:53.433Z,977.54
2023-01-09T12:01:54.696Z,977.55
2023-01-09T12:02:55.885Z,977.49
2023-01-09T12:03:56.756Z,977.38
2023-01-09T12:04:57.663Z,977.52
2023-01-09T12:05:58.563Z,977.51
2023-01-09T12:06:59.601Z,977.5
2023-01-09T12:08:00.553Z,977.58
2023-01-09T12:09:01.459Z,977.48
2023-01-09T12:10:02.358Z,977.47
2023-01-09T12:11:03.260Z,977.51
2023-01-09T12:12:04.173Z,977.47
2023-01-09T12:13:05.118Z,977.48
2023-01-09T12:14:06.216Z,977.44
2023-01-09T12:15:10.494Z,977.44
2023-01-09T12:16:08.509Z,977.44
2023-01-09T12:17:09.550Z,977.46
2023-01-09T12:18:10.442Z,977.5
2023-01-09T12:19:11.388Z,977.47
2023-01-09T12:20:12.294Z,977.44
2023-01-09T12:21:13.174Z,977.49
2023-01-09T12:22:14.069Z,977.53
2023-01-09T12:23:14.968Z,977.48
2023-01-09T12:24:15.821Z,977.47
2023-01-09T12:25:16.706Z,977.56
2023-01-09T12:26:17.570Z,977.53
2023-01-09T12:27:18.456Z,977.51
2023-01-09T12:28:19.322Z,977.52
2023-01-09T13:52:38.629Z,978.07
2023-01-09T13:53:39.538Z,978.05
2023-01-09T13:54:40.466Z,978.08
2023-01-09T13:55:41.560Z,978.05
2023-01-09T13:56:42.440Z,978
2023-01-09T13:57:43.345Z,978.04
2023-01-09T13:58:44.217Z,978.1
2023-01-09T13:59:45.348Z,978.08
2023-01-09T14:00:46.289Z,978.12
2023-01-09T14:01:47.143Z,978.16
2023-01-09T14:02:48.010Z,978.14
2023-01-09T14:03:48.886Z,978.13
2023-01-09T14:04:49.756Z,978.09
2023-01-09T14:19:35.407Z,978.38
2023-01-09T14:20:36.512Z,978.32
2023-01-09T14:21:37.381Z,978.44
2023-01-09T14:23:23.010Z,978.49
2023-01-09T14:23:59.168Z,978.5
2023-01-09T14:24:42.208Z,978.55
